WXM80 ListenWXM80 Stop

You find our weather info also at:

UK Metoffice

WeatherCloud

Weather Underground

Northeastern Weather Network

AWEKAS

Citizen Weather Observer Program (CWOP)

HAMweather, WeatherForYou, PWS Weather


Weather Underground History page Text

Daily Summary for July 9, 2017 Units:  Both    English   Metric
« Previous Day
Next Day »
Daily Weekly Monthly Yearly Custom
  High: Low: Average:
Temperature: 87.8 °F /  31 °C 66.3 °F /  19.1 °C 76.2 °F /  24.6 °C
Dew Point: 66.0 °F /  18.9 °C 55.9 °F /  13.3 °C 60.9 °F /  16.1 °C
Humidity: 87 % 34 % 62 %
Wind Speed: 4.9 mph /  7.9 km/h - 1.4 mph /  2.3 km/h
Wind Gust: 12.0 mph /  19.3 km/h - -
Wind:- - WSW
Pressure: 30.01 in /  1016.1 hPa 29.81 in /  1009.4 hPa -
Precipitation: 0.00 in /  0 mm    
Historical Graphs
 
 
Tabular Data for July 9, 2017
Time Temperature Dew Point Pressure Wind Wind Speed Wind Gust Humidity Rainfall Rate (Hourly)
00:02 71.2 °F /  21.8 °C 65.8 °F /  18.8 °C 29.81 in /  1009.4 hPa WSW 0.1 mph /  0.2 km/h 2.3 mph /  3.7 km/h 83 % 0.00 in /  0 mm
00:07 71.1 °F /  21.7 °C 65.7 °F /  18.7 °C 29.81 in /  1009.4 hPa Calm     83 % 0.00 in /  0 mm
00:12 71.0 °F /  21.7 °C 65.6 °F /  18.7 °C 29.81 in /  1009.4 hPa Calm     83 % 0.00 in /  0 mm
00:17 70.9 °F /  21.6 °C 65.5 °F /  18.6 °C 29.81 in /  1009.4 hPa WSW 0.2 mph /  0.3 km/h 1.2 mph /  1.9 km/h 83 % 0.00 in /  0 mm
00:22 70.8 °F /  21.6 °C 65.4 °F /  18.6 °C 29.82 in /  1009.7 hPa Calm     83 % 0.00 in /  0 mm
00:27 70.7 °F /  21.5 °C 65.6 °F /  18.7 °C 29.82 in /  1009.7 hPa WSW 0.3 mph /  0.5 km/h 1.2 mph /  1.9 km/h 84 % 0.00 in /  0 mm
00:32 70.6 °F /  21.4 °C 65.9 °F /  18.8 °C 29.81 in /  1009.4 hPa Calm   1.2 mph /  1.9 km/h 85 % 0.00 in /  0 mm
00:37 70.5 °F /  21.4 °C 65.8 °F /  18.8 °C 29.82 in /  1009.7 hPa WSW 1.0 mph /  1.6 km/h 3.0 mph /  4.8 km/h 85 % 0.00 in /  0 mm
00:42 70.4 °F /  21.3 °C 66.0 °F /  18.9 °C 29.81 in /  1009.4 hPa WSW 0.2 mph /  0.3 km/h 3.5 mph /  5.6 km/h 86 % 0.00 in /  0 mm
00:43 70.3 °F /  21.3 °C 65.9 °F /  18.8 °C 29.82 in /  1009.7 hPa WSW 0.1 mph /  0.2 km/h 2.0 mph /  3.2 km/h 86 % 0.00 in /  0 mm
00:48 70.3 °F /  21.3 °C 65.9 °F /  18.8 °C 29.82 in /  1009.7 hPa Calm   1.2 mph /  1.9 km/h 86 % 0.00 in /  0 mm
00:53 70.2 °F /  21.2 °C 65.8 °F /  18.8 °C 29.82 in /  1009.7 hPa WSW 1.4 mph /  2.3 km/h 3.5 mph /  5.6 km/h 86 % 0.00 in /  0 mm
00:58 70.2 °F /  21.2 °C 65.8 °F /  18.8 °C 29.82 in /  1009.7 hPa Calm   1.2 mph /  1.9 km/h 86 % 0.00 in /  0 mm
01:03 70.1 °F /  21.2 °C 66.0 °F /  18.9 °C 29.82 in /  1009.7 hPa WSW 1.0 mph /  1.6 km/h 2.3 mph /  3.7 km/h 87 % 0.00 in /  0 mm
01:08 70.1 °F /  21.2 °C 66.0 °F /  18.9 °C 29.82 in /  1009.7 hPa Calm   1.0 mph /  1.6 km/h 87 % 0.00 in /  0 mm
01:13 70.0 °F /  21.1 °C 65.6 °F /  18.7 °C 29.83 in /  1010 hPa WSW 0.9 mph /  1.4 km/h 3.5 mph /  5.6 km/h 86 % 0.00 in /  0 mm
01:18 70.0 °F /  21.1 °C 65.6 °F /  18.7 °C 29.82 in /  1009.7 hPa Calm     86 % 0.00 in /  0 mm
01:23 69.9 °F /  21.1 °C 65.5 °F /  18.6 °C 29.83 in /  1010 hPa Calm   2.3 mph /  3.7 km/h 86 % 0.00 in /  0 mm
01:28 69.9 °F /  21.1 °C 65.5 °F /  18.6 °C 29.82 in /  1009.7 hPa WSW 2.0 mph /  3.2 km/h 3.5 mph /  5.6 km/h 86 % 0.00 in /  0 mm
01:33 69.8 °F /  21 °C 65.8 °F /  18.8 °C 29.82 in /  1009.7 hPa WSW 0.4 mph /  0.6 km/h 1.2 mph /  1.9 km/h 87 % 0.00 in /  0 mm
01:38 69.7 °F /  20.9 °C 65.7 °F /  18.7 °C 29.82 in /  1009.7 hPa WSW 1.5 mph /  2.4 km/h 2.3 mph /  3.7 km/h 87 % 0.00 in /  0 mm
01:43 69.6 °F /  20.9 °C 65.6 °F /  18.7 °C 29.83 in /  1010 hPa West 1.0 mph /  1.6 km/h 3.5 mph /  5.6 km/h 87 % 0.00 in /  0 mm
01:48 69.4 °F /  20.8 °C 65.0 °F /  18.3 °C 29.83 in /  1010 hPa SSW 0.8 mph /  1.3 km/h 2.3 mph /  3.7 km/h 86 % 0.00 in /  0 mm
01:53 69.4 °F /  20.8 °C 64.7 °F /  18.2 °C 29.83 in /  1010 hPa West 0.3 mph /  0.5 km/h 2.3 mph /  3.7 km/h 85 % 0.00 in /  0 mm
01:58 69.3 °F /  20.7 °C 64.3 °F /  17.9 °C 29.83 in /  1010 hPa SW 1.4 mph /  2.3 km/h 5.0 mph /  8 km/h 84 % 0.00 in /  0 mm
02:03 69.3 °F /  20.7 °C 64.3 °F /  17.9 °C 29.83 in /  1010 hPa West 2.9 mph /  4.7 km/h 5.0 mph /  8 km/h 84 % 0.00 in /  0 mm
02:08 69.3 °F /  20.7 °C 63.9 °F /  17.7 °C 29.84 in /  1010.4 hPa West 1.5 mph /  2.4 km/h 5.0 mph /  8 km/h 83 % 0.00 in /  0 mm
02:13 69.3 °F /  20.7 °C 63.6 °F /  17.6 °C 29.84 in /  1010.4 hPa WSW 0.7 mph /  1.1 km/h 3.5 mph /  5.6 km/h 82 % 0.00 in /  0 mm
02:18 69.4 °F /  20.8 °C 63.7 °F /  17.6 °C 29.84 in /  1010.4 hPa SW 0.4 mph /  0.6 km/h 3.5 mph /  5.6 km/h 82 % 0.00 in /  0 mm
02:23 69.4 °F /  20.8 °C 63.3 °F /  17.4 °C 29.84 in /  1010.4 hPa WSW 2.0 mph /  3.2 km/h 5.8 mph /  9.3 km/h 81 % 0.00 in /  0 mm
02:28 69.5 °F /  20.8 °C 63.1 °F /  17.3 °C 29.84 in /  1010.4 hPa West 1.9 mph /  3.1 km/h 5.8 mph /  9.3 km/h 80 % 0.00 in /  0 mm
02:34 69.5 °F /  20.8 °C 62.7 °F /  17.1 °C 29.84 in /  1010.4 hPa WNW 1.6 mph /  2.6 km/h 3.5 mph /  5.6 km/h 79 % 0.00 in /  0 mm
02:39 69.5 °F /  20.8 °C 62.3 °F /  16.8 °C 29.84 in /  1010.4 hPa WNW 2.4 mph /  3.9 km/h 4.6 mph /  7.4 km/h 78 % 0.00 in /  0 mm
02:44 69.5 °F /  20.8 °C 62.0 °F /  16.7 °C 29.84 in /  1010.4 hPa WNW 1.2 mph /  1.9 km/h 4.6 mph /  7.4 km/h 77 % 0.00 in /  0 mm
02:49 69.6 °F /  20.9 °C 61.7 °F /  16.5 °C 29.84 in /  1010.4 hPa WSW 1.2 mph /  1.9 km/h 2.3 mph /  3.7 km/h 76 % 0.00 in /  0 mm
02:54 69.6 °F /  20.9 °C 61.7 °F /  16.5 °C 29.83 in /  1010 hPa WSW 2.1 mph /  3.4 km/h 4.6 mph /  7.4 km/h 76 % 0.00 in /  0 mm
02:59 69.7 °F /  20.9 °C 62.2 °F /  16.8 °C 29.83 in /  1010 hPa West 0.9 mph /  1.4 km/h 3.5 mph /  5.6 km/h 77 % 0.00 in /  0 mm
03:04 69.7 °F /  20.9 °C 61.8 °F /  16.6 °C 29.83 in /  1010 hPa WNW 0.4 mph /  0.6 km/h 4.0 mph /  6.4 km/h 76 % 0.00 in /  0 mm
03:09 69.7 °F /  20.9 °C 61.4 °F /  16.3 °C 29.83 in /  1010 hPa SW 2.0 mph /  3.2 km/h 4.6 mph /  7.4 km/h 75 % 0.00 in /  0 mm
03:14 69.7 °F /  20.9 °C 61.0 °F /  16.1 °C 29.83 in /  1010 hPa WNW 0.9 mph /  1.4 km/h 4.6 mph /  7.4 km/h 74 % 0.00 in /  0 mm
03:19 69.6 °F /  20.9 °C 60.9 °F /  16.1 °C 29.83 in /  1010 hPa WNW 0.5 mph /  0.8 km/h 5.8 mph /  9.3 km/h 74 % 0.00 in /  0 mm
03:24 69.6 °F /  20.9 °C 60.9 °F /  16.1 °C 29.83 in /  1010 hPa West 3.9 mph /  6.3 km/h 4.6 mph /  7.4 km/h 74 % 0.00 in /  0 mm
03:29 69.6 °F /  20.9 °C 61.3 °F /  16.3 °C 29.83 in /  1010 hPa West 1.0 mph /  1.6 km/h 5.8 mph /  9.3 km/h 75 % 0.00 in /  0 mm
03:34 69.6 °F /  20.9 °C 61.3 °F /  16.3 °C 29.83 in /  1010 hPa WNW 0.6 mph /  1 km/h 3.5 mph /  5.6 km/h 75 % 0.00 in /  0 mm
03:39 69.5 °F /  20.8 °C 61.2 °F /  16.2 °C 29.84 in /  1010.4 hPa WNW 4.8 mph /  7.7 km/h 6.9 mph /  11.1 km/h 75 % 0.00 in /  0 mm
03:44 69.5 °F /  20.8 °C 61.2 °F /  16.2 °C 29.84 in /  1010.4 hPa WNW 2.8 mph /  4.5 km/h 4.0 mph /  6.4 km/h 75 % 0.00 in /  0 mm
03:49 69.5 °F /  20.8 °C 61.6 °F /  16.4 °C 29.84 in /  1010.4 hPa WNW 3.3 mph /  5.3 km/h 6.9 mph /  11.1 km/h 76 % 0.00 in /  0 mm
03:54 69.4 °F /  20.8 °C 61.5 °F /  16.4 °C 29.84 in /  1010.4 hPa WNW 3.0 mph /  4.8 km/h 6.9 mph /  11.1 km/h 76 % 0.00 in /  0 mm
03:59 69.4 °F /  20.8 °C 61.1 °F /  16.2 °C 29.84 in /  1010.4 hPa West 1.6 mph /  2.6 km/h 8.0 mph /  12.9 km/h 75 % 0.00 in /  0 mm
04:04 69.3 °F /  20.7 °C 61.4 °F /  16.3 °C 29.84 in /  1010.4 hPa West 0.7 mph /  1.1 km/h 4.0 mph /  6.4 km/h 76 % 0.00 in /  0 mm
04:09 69.3 °F /  20.7 °C 61.4 °F /  16.3 °C 29.84 in /  1010.4 hPa NW 0.9 mph /  1.4 km/h 3.5 mph /  5.6 km/h 76 % 0.00 in /  0 mm
04:14 69.2 °F /  20.7 °C 61.3 °F /  16.3 °C 29.85 in /  1010.7 hPa West 1.4 mph /  2.3 km/h 7.0 mph /  11.3 km/h 76 % 0.00 in /  0 mm
04:19 69.1 °F /  20.6 °C 61.2 °F /  16.2 °C 29.85 in /  1010.7 hPa West 2.1 mph /  3.4 km/h 4.6 mph /  7.4 km/h 76 % 0.00 in /  0 mm
04:24 69.0 °F /  20.6 °C 60.7 °F /  15.9 °C 29.85 in /  1010.7 hPa SW 3.7 mph /  6 km/h 6.9 mph /  11.1 km/h 75 % 0.00 in /  0 mm
04:30 68.8 °F /  20.4 °C 59.8 °F /  15.4 °C 29.85 in /  1010.7 hPa West 2.0 mph /  3.2 km/h 5.8 mph /  9.3 km/h 73 % 0.00 in /  0 mm
04:35 68.8 °F /  20.4 °C 60.2 °F /  15.7 °C 29.85 in /  1010.7 hPa WSW 2.1 mph /  3.4 km/h 7.0 mph /  11.3 km/h 74 % 0.00 in /  0 mm
04:40 68.7 °F /  20.4 °C 60.5 °F /  15.8 °C 29.86 in /  1011.1 hPa WNW 3.1 mph /  5 km/h 6.9 mph /  11.1 km/h 75 % 0.00 in /  0 mm
04:45 68.6 °F /  20.3 °C 60.0 °F /  15.6 °C 29.86 in /  1011.1 hPa WNW 3.6 mph /  5.8 km/h 8.1 mph /  13 km/h 74 % 0.00 in /  0 mm
04:50 68.4 °F /  20.2 °C 59.8 °F /  15.4 °C 29.86 in /  1011.1 hPa SSW 4.5 mph /  7.2 km/h 6.9 mph /  11.1 km/h 74 % 0.00 in /  0 mm
04:55 68.3 °F /  20.2 °C 59.7 °F /  15.4 °C 29.86 in /  1011.1 hPa WNW 1.5 mph /  2.4 km/h 10.4 mph /  16.7 km/h 74 % 0.00 in /  0 mm
05:00 68.1 °F /  20.1 °C 59.5 °F /  15.3 °C 29.86 in /  1011.1 hPa West 4.6 mph /  7.4 km/h 9.2 mph /  14.8 km/h 74 % 0.00 in /  0 mm
05:05 68.0 °F /  20 °C 59.4 °F /  15.2 °C 29.87 in /  1011.4 hPa WNW 2.9 mph /  4.7 km/h 4.6 mph /  7.4 km/h 74 % 0.00 in /  0 mm
05:10 67.9 °F /  19.9 °C 59.3 °F /  15.2 °C 29.87 in /  1011.4 hPa NW 2.3 mph /  3.7 km/h 4.6 mph /  7.4 km/h 74 % 0.00 in /  0 mm
05:15 67.7 °F /  19.8 °C 59.5 °F /  15.3 °C 29.87 in /  1011.4 hPa West 3.4 mph /  5.5 km/h 6.9 mph /  11.1 km/h 75 % 0.00 in /  0 mm
05:20 67.7 °F /  19.8 °C 59.9 °F /  15.5 °C 29.87 in /  1011.4 hPa WNW 3.1 mph /  5 km/h 4.6 mph /  7.4 km/h 76 % 0.00 in /  0 mm
05:25 67.6 °F /  19.8 °C 59.8 °F /  15.4 °C 29.88 in /  1011.7 hPa WNW 1.3 mph /  2.1 km/h 3.5 mph /  5.6 km/h 76 % 0.00 in /  0 mm
05:30 67.4 °F /  19.7 °C 59.6 °F /  15.3 °C 29.87 in /  1011.4 hPa WNW 2.1 mph /  3.4 km/h 4.6 mph /  7.4 km/h 76 % 0.00 in /  0 mm
05:35 67.3 °F /  19.6 °C 59.5 °F /  15.3 °C 29.88 in /  1011.7 hPa WNW 0.3 mph /  0.5 km/h 3.5 mph /  5.6 km/h 76 % 0.00 in /  0 mm
05:40 67.1 °F /  19.5 °C 59.3 °F /  15.2 °C 29.88 in /  1011.7 hPa WNW 2.6 mph /  4.2 km/h 4.6 mph /  7.4 km/h 76 % 0.00 in /  0 mm
05:45 67.0 °F /  19.4 °C 59.2 °F /  15.1 °C 29.88 in /  1011.7 hPa NW 0.6 mph /  1 km/h 2.3 mph /  3.7 km/h 76 % 0.00 in /  0 mm
05:50 66.9 °F /  19.4 °C 59.1 °F /  15.1 °C 29.88 in /  1011.7 hPa SSE 0.2 mph /  0.3 km/h 1.2 mph /  1.9 km/h 76 % 0.00 in /  0 mm
05:55 66.8 °F /  19.3 °C 59.0 °F /  15 °C 29.89 in /  1012.1 hPa Calm   1.0 mph /  1.6 km/h 76 % 0.00 in /  0 mm
06:00 66.7 °F /  19.3 °C 58.9 °F /  14.9 °C 29.89 in /  1012.1 hPa SSW 0.5 mph /  0.8 km/h 2.0 mph /  3.2 km/h 76 % 0.00 in /  0 mm
06:05 66.6 °F /  19.2 °C 59.2 °F /  15.1 °C 29.89 in /  1012.1 hPa WNW 1.4 mph /  2.3 km/h 3.5 mph /  5.6 km/h 77 % 0.00 in /  0 mm
06:10 66.5 °F /  19.2 °C 59.1 °F /  15.1 °C 29.89 in /  1012.1 hPa Calm   1.2 mph /  1.9 km/h 77 % 0.00 in /  0 mm
06:15 66.5 °F /  19.2 °C 59.1 °F /  15.1 °C 29.90 in /  1012.4 hPa WNW 1.3 mph /  2.1 km/h 3.5 mph /  5.6 km/h 77 % 0.00 in /  0 mm
06:20 66.4 °F /  19.1 °C 58.6 °F /  14.8 °C 29.90 in /  1012.4 hPa West 0.5 mph /  0.8 km/h 2.3 mph /  3.7 km/h 76 % 0.00 in /  0 mm
06:25 66.3 °F /  19.1 °C 58.5 °F /  14.7 °C 29.90 in /  1012.4 hPa WSW 1.8 mph /  2.9 km/h 4.6 mph /  7.4 km/h 76 % 0.00 in /  0 mm
06:30 66.3 °F /  19.1 °C 58.5 °F /  14.7 °C 29.90 in /  1012.4 hPa West 1.1 mph /  1.8 km/h 2.0 mph /  3.2 km/h 76 % 0.00 in /  0 mm
06:36 66.4 °F /  19.1 °C 59.0 °F /  15 °C 29.90 in /  1012.4 hPa Calm   3.0 mph /  4.8 km/h 77 % 0.00 in /  0 mm
06:41 66.5 °F /  19.2 °C 59.1 °F /  15.1 °C 29.91 in /  1012.8 hPa West 1.0 mph /  1.6 km/h 4.0 mph /  6.4 km/h 77 % 0.00 in /  0 mm
06:46 66.7 °F /  19.3 °C 59.3 °F /  15.2 °C 29.91 in /  1012.8 hPa West 1.0 mph /  1.6 km/h 4.0 mph /  6.4 km/h 77 % 0.00 in /  0 mm
06:51 67.0 °F /  19.4 °C 59.9 °F /  15.5 °C 29.91 in /  1012.8 hPa WNW 1.0 mph /  1.6 km/h 4.0 mph /  6.4 km/h 78 % 0.00 in /  0 mm
06:56 67.2 °F /  19.6 °C 60.1 °F /  15.6 °C 29.91 in /  1012.8 hPa West 1.7 mph /  2.7 km/h 6.0 mph /  9.7 km/h 78 % 0.00 in /  0 mm
07:01 67.6 °F /  19.8 °C 59.8 °F /  15.4 °C 29.91 in /  1012.8 hPa WNW 0.8 mph /  1.3 km/h 3.0 mph /  4.8 km/h 76 % 0.00 in /  0 mm
07:06 67.9 °F /  19.9 °C 60.1 °F /  15.6 °C 29.92 in /  1013.1 hPa West 1.0 mph /  1.6 km/h 4.0 mph /  6.4 km/h 76 % 0.00 in /  0 mm
07:11 68.3 °F /  20.2 °C 60.1 °F /  15.6 °C 29.92 in /  1013.1 hPa Calm   4.0 mph /  6.4 km/h 75 % 0.00 in /  0 mm
07:16 68.7 °F /  20.4 °C 59.7 °F /  15.4 °C 29.92 in /  1013.1 hPa WNW 2.0 mph /  3.2 km/h 7.0 mph /  11.3 km/h 73 % 0.00 in /  0 mm
07:21 69.1 °F /  20.6 °C 59.3 °F /  15.2 °C 29.92 in /  1013.1 hPa WNW 2.0 mph /  3.2 km/h 6.0 mph /  9.7 km/h 71 % 0.00 in /  0 mm
07:26 69.4 °F /  20.8 °C 59.2 °F /  15.1 °C 29.92 in /  1013.1 hPa WNW 3.0 mph /  4.8 km/h 7.0 mph /  11.3 km/h 70 % 0.00 in /  0 mm
07:31 69.7 °F /  20.9 °C 59.5 °F /  15.3 °C 29.92 in /  1013.1 hPa WNW 1.0 mph /  1.6 km/h 8.0 mph /  12.9 km/h 70 % 0.00 in /  0 mm
07:36 69.9 °F /  21.1 °C 59.3 °F /  15.2 °C 29.93 in /  1013.4 hPa WNW 2.0 mph /  3.2 km/h 5.0 mph /  8 km/h 69 % 0.00 in /  0 mm
07:41 70.1 °F /  21.2 °C 59.5 °F /  15.3 °C 29.93 in /  1013.4 hPa WNW 1.0 mph /  1.6 km/h 5.0 mph /  8 km/h 69 % 0.00 in /  0 mm
07:46 70.3 °F /  21.3 °C 59.6 °F /  15.3 °C 29.93 in /  1013.4 hPa WNW 2.0 mph /  3.2 km/h 6.0 mph /  9.7 km/h 69 % 0.00 in /  0 mm
07:51 70.3 °F /  21.3 °C 58.8 °F /  14.9 °C 29.93 in /  1013.4 hPa WNW 3.0 mph /  4.8 km/h 9.0 mph /  14.5 km/h 67 % 0.00 in /  0 mm
07:56 70.3 °F /  21.3 °C 58.8 °F /  14.9 °C 29.93 in /  1013.4 hPa WNW 3.0 mph /  4.8 km/h 8.0 mph /  12.9 km/h 67 % 0.00 in /  0 mm
08:01 70.2 °F /  21.2 °C 58.3 °F /  14.6 °C 29.93 in /  1013.4 hPa WNW 1.4 mph /  2.3 km/h 5.8 mph /  9.3 km/h 66 % 0.00 in /  0 mm
08:06 70.2 °F /  21.2 °C 58.3 °F /  14.6 °C 29.94 in /  1013.8 hPa WNW 1.8 mph /  2.9 km/h 6.9 mph /  11.1 km/h 66 % 0.00 in /  0 mm
08:11 70.2 °F /  21.2 °C 58.7 °F /  14.8 °C 29.94 in /  1013.8 hPa WNW 3.0 mph /  4.8 km/h 6.9 mph /  11.1 km/h 67 % 0.00 in /  0 mm
08:16 70.2 °F /  21.2 °C 58.7 °F /  14.8 °C 29.94 in /  1013.8 hPa WNW 3.1 mph /  5 km/h 5.8 mph /  9.3 km/h 67 % 0.00 in /  0 mm
08:21 70.2 °F /  21.2 °C 59.1 °F /  15.1 °C 29.94 in /  1013.8 hPa West 1.8 mph /  2.9 km/h 5.8 mph /  9.3 km/h 68 % 0.00 in /  0 mm
08:26 70.2 °F /  21.2 °C 58.7 °F /  14.8 °C 29.94 in /  1013.8 hPa West 1.5 mph /  2.4 km/h 5.8 mph /  9.3 km/h 67 % 0.00 in /  0 mm
08:31 70.3 °F /  21.3 °C 58.8 °F /  14.9 °C 29.95 in /  1014.1 hPa SW 0.9 mph /  1.4 km/h 4.6 mph /  7.4 km/h 67 % 0.00 in /  0 mm
08:36 70.3 °F /  21.3 °C 58.0 °F /  14.4 °C 29.95 in /  1014.1 hPa West 1.2 mph /  1.9 km/h 5.8 mph /  9.3 km/h 65 % 0.00 in /  0 mm
08:41 70.4 °F /  21.3 °C 58.9 °F /  14.9 °C 29.95 in /  1014.1 hPa WSW 0.7 mph /  1.1 km/h 2.3 mph /  3.7 km/h 67 % 0.00 in /  0 mm
08:46 70.5 °F /  21.4 °C 58.6 °F /  14.8 °C 29.95 in /  1014.1 hPa WNW 2.3 mph /  3.7 km/h 4.6 mph /  7.4 km/h 66 % 0.00 in /  0 mm
08:51 70.6 °F /  21.4 °C 59.1 °F /  15.1 °C 29.95 in /  1014.1 hPa SSW 2.0 mph /  3.2 km/h 6.0 mph /  9.7 km/h 67 % 0.00 in /  0 mm
08:56 70.7 °F /  21.5 °C 58.8 °F /  14.9 °C 29.95 in /  1014.1 hPa WNW 2.0 mph /  3.2 km/h 3.5 mph /  5.6 km/h 66 % 0.00 in /  0 mm
09:01 70.8 °F /  21.6 °C 58.9 °F /  14.9 °C 29.95 in /  1014.1 hPa SW 0.9 mph /  1.4 km/h 4.0 mph /  6.4 km/h 66 % 0.00 in /  0 mm
09:06 70.9 °F /  21.6 °C 58.1 °F /  14.5 °C 29.95 in /  1014.1 hPa WNW 2.5 mph /  4 km/h 3.5 mph /  5.6 km/h 64 % 0.00 in /  0 mm
09:11 71.0 °F /  21.7 °C 58.6 °F /  14.8 °C 29.95 in /  1014.1 hPa SW 2.0 mph /  3.2 km/h 3.5 mph /  5.6 km/h 65 % 0.00 in /  0 mm
09:16 71.1 °F /  21.7 °C 59.2 °F /  15.1 °C 29.95 in /  1014.1 hPa WNW 1.1 mph /  1.8 km/h 3.5 mph /  5.6 km/h 66 % 0.00 in /  0 mm
09:21 71.2 °F /  21.8 °C 60.5 °F /  15.8 °C 29.95 in /  1014.1 hPa WNW 0.9 mph /  1.4 km/h 3.5 mph /  5.6 km/h 69 % 0.00 in /  0 mm
09:26 71.3 °F /  21.8 °C 59.8 °F /  15.4 °C 29.95 in /  1014.1 hPa NW 0.5 mph /  0.8 km/h 3.5 mph /  5.6 km/h 67 % 0.00 in /  0 mm
09:31 71.4 °F /  21.9 °C 59.9 °F /  15.5 °C 29.95 in /  1014.1 hPa SW 1.6 mph /  2.6 km/h 4.0 mph /  6.4 km/h 67 % 0.00 in /  0 mm
09:36 71.6 °F /  22 °C 60.1 °F /  15.6 °C 29.95 in /  1014.1 hPa SW 1.3 mph /  2.1 km/h 2.3 mph /  3.7 km/h 67 % 0.00 in /  0 mm
09:41 71.8 °F /  22.1 °C 60.2 °F /  15.7 °C 29.95 in /  1014.1 hPa West 1.3 mph /  2.1 km/h 3.5 mph /  5.6 km/h 67 % 0.00 in /  0 mm
09:46 72.1 °F /  22.3 °C 60.5 °F /  15.8 °C 29.96 in /  1014.4 hPa Calm   1.2 mph /  1.9 km/h 67 % 0.00 in /  0 mm
09:51 72.5 °F /  22.5 °C 60.5 °F /  15.8 °C 29.96 in /  1014.4 hPa WSW 3.2 mph /  5.1 km/h 5.0 mph /  8 km/h 66 % 0.00 in /  0 mm
09:56 73.1 °F /  22.8 °C 60.6 °F /  15.9 °C 29.96 in /  1014.4 hPa West 2.4 mph /  3.9 km/h 5.8 mph /  9.3 km/h 65 % 0.00 in /  0 mm
10:01 73.9 °F /  23.3 °C 60.1 °F /  15.6 °C 29.96 in /  1014.4 hPa West 1.9 mph /  3.1 km/h 5.8 mph /  9.3 km/h 62 % 0.00 in /  0 mm
10:06 74.8 °F /  23.8 °C 62.2 °F /  16.8 °C 29.97 in /  1014.8 hPa WNW 1.4 mph /  2.3 km/h 3.5 mph /  5.6 km/h 65 % 0.00 in /  0 mm
10:12 75.8 °F /  24.3 °C 62.8 °F /  17.1 °C 29.96 in /  1014.4 hPa NNW 0.9 mph /  1.4 km/h 3.5 mph /  5.6 km/h 64 % 0.00 in /  0 mm
10:17 76.7 °F /  24.8 °C 61.8 °F /  16.6 °C 29.97 in /  1014.8 hPa West 1.1 mph /  1.8 km/h 3.5 mph /  5.6 km/h 60 % 0.00 in /  0 mm
10:22 77.7 °F /  25.4 °C 61.7 °F /  16.5 °C 29.97 in /  1014.8 hPa WNW 3.2 mph /  5.1 km/h 5.8 mph /  9.3 km/h 58 % 0.00 in /  0 mm
10:27 78.3 °F /  25.7 °C 61.3 °F /  16.3 °C 29.97 in /  1014.8 hPa West 2.1 mph /  3.4 km/h 5.8 mph /  9.3 km/h 56 % 0.00 in /  0 mm
10:32 79.0 °F /  26.1 °C 61.5 °F /  16.4 °C 29.96 in /  1014.4 hPa West 3.0 mph /  4.8 km/h 5.8 mph /  9.3 km/h 55 % 0.00 in /  0 mm
10:37 79.8 °F /  26.6 °C 62.7 °F /  17.1 °C 29.97 in /  1014.8 hPa WNW 0.6 mph /  1 km/h 3.5 mph /  5.6 km/h 56 % 0.00 in /  0 mm
10:42 80.5 °F /  26.9 °C 61.8 °F /  16.6 °C 29.97 in /  1014.8 hPa WNW 0.8 mph /  1.3 km/h 4.0 mph /  6.4 km/h 53 % 0.00 in /  0 mm
10:47 81.0 °F /  27.2 °C 60.6 °F /  15.9 °C 29.97 in /  1014.8 hPa WNW 2.5 mph /  4 km/h 4.6 mph /  7.4 km/h 50 % 0.00 in /  0 mm
10:52 81.6 °F /  27.6 °C 61.2 °F /  16.2 °C 29.97 in /  1014.8 hPa NW 1.8 mph /  2.9 km/h 3.5 mph /  5.6 km/h 50 % 0.00 in /  0 mm
10:57 82.1 °F /  27.8 °C 62.7 °F /  17.1 °C 29.97 in /  1014.8 hPa WNW 1.8 mph /  2.9 km/h 4.6 mph /  7.4 km/h 52 % 0.00 in /  0 mm
10:58 82.2 °F /  27.9 °C 62.8 °F /  17.1 °C 29.97 in /  1014.8 hPa NNW 1.9 mph /  3.1 km/h 4.6 mph /  7.4 km/h 52 % 0.00 in /  0 mm
11:03 82.7 °F /  28.2 °C 64.9 °F /  18.3 °C 29.97 in /  1014.8 hPa WNW 2.6 mph /  4.2 km/h 7.0 mph /  11.3 km/h 55 % 0.00 in /  0 mm
11:08 82.9 °F /  28.3 °C 62.9 °F /  17.2 °C 29.97 in /  1014.8 hPa West 1.1 mph /  1.8 km/h 3.5 mph /  5.6 km/h 51 % 0.00 in /  0 mm
11:13 83.2 °F /  28.4 °C 63.2 °F /  17.3 °C 29.97 in /  1014.8 hPa NW 0.8 mph /  1.3 km/h 2.3 mph /  3.7 km/h 51 % 0.00 in /  0 mm
11:18 83.5 °F /  28.6 °C 62.3 °F /  16.8 °C 29.98 in /  1015.1 hPa NNE 2.1 mph /  3.4 km/h 4.0 mph /  6.4 km/h 49 % 0.00 in /  0 mm
11:23 83.8 °F /  28.8 °C 62.6 °F /  17 °C 29.98 in /  1015.1 hPa North 1.4 mph /  2.3 km/h 3.5 mph /  5.6 km/h 49 % 0.00 in /  0 mm
11:28 84.0 °F /  28.9 °C 63.4 °F /  17.4 °C 29.98 in /  1015.1 hPa North 2.2 mph /  3.5 km/h 4.0 mph /  6.4 km/h 50 % 0.00 in /  0 mm
11:33 84.3 °F /  29.1 °C 61.9 °F /  16.6 °C 29.98 in /  1015.1 hPa North 2.5 mph /  4 km/h 4.6 mph /  7.4 km/h 47 % 0.00 in /  0 mm
11:38 84.5 °F /  29.2 °C 61.4 °F /  16.3 °C 29.98 in /  1015.1 hPa NW 1.2 mph /  1.9 km/h 5.8 mph /  9.3 km/h 46 % 0.00 in /  0 mm
11:43 84.8 °F /  29.3 °C 62.9 °F /  17.2 °C 29.98 in /  1015.1 hPa WNW 3.9 mph /  6.3 km/h 4.6 mph /  7.4 km/h 48 % 0.00 in /  0 mm
11:48 84.9 °F /  29.4 °C 61.8 °F /  16.6 °C 29.98 in /  1015.1 hPa SW 2.5 mph /  4 km/h 5.8 mph /  9.3 km/h 46 % 0.00 in /  0 mm
11:53 84.9 °F /  29.4 °C 59.2 °F /  15.1 °C 29.98 in /  1015.1 hPa WSW 3.7 mph /  6 km/h 8.1 mph /  13 km/h 42 % 0.00 in /  0 mm
11:58 85.1 °F /  29.5 °C 64.4 °F /  18 °C 29.98 in /  1015.1 hPa NNE 2.0 mph /  3.2 km/h 3.5 mph /  5.6 km/h 50 % 0.00 in /  0 mm
12:03 85.4 °F /  29.7 °C 63.5 °F /  17.5 °C 29.98 in /  1015.1 hPa SW 2.0 mph /  3.2 km/h 6.0 mph /  9.7 km/h 48 % 0.00 in /  0 mm
12:08 85.4 °F /  29.7 °C 62.3 °F /  16.8 °C 29.98 in /  1015.1 hPa West 0.9 mph /  1.4 km/h 3.5 mph /  5.6 km/h 46 % 0.00 in /  0 mm
12:13 85.6 °F /  29.8 °C 63.1 °F /  17.3 °C 29.98 in /  1015.1 hPa WNW 1.1 mph /  1.8 km/h 5.0 mph /  8 km/h 47 % 0.00 in /  0 mm
12:16 85.7 °F /  29.8 °C 62.5 °F /  16.9 °C 29.98 in /  1015.1 hPa WNW 2.0 mph /  3.2 km/h 6.0 mph /  9.7 km/h 46 % 0.00 in /  0 mm
12:21 85.9 °F /  29.9 °C 61.4 °F /  16.3 °C 29.98 in /  1015.1 hPa WNW 2.0 mph /  3.2 km/h 6.0 mph /  9.7 km/h 44 % 0.00 in /  0 mm
12:26 86.1 °F /  30.1 °C 60.4 °F /  15.8 °C 29.98 in /  1015.1 hPa West 2.0 mph /  3.2 km/h 7.0 mph /  11.3 km/h 42 % 0.00 in /  0 mm
12:31 86.2 °F /  30.1 °C 60.4 °F /  15.8 °C 29.98 in /  1015.1 hPa West 3.0 mph /  4.8 km/h 8.0 mph /  12.9 km/h 42 % 0.00 in /  0 mm
12:36 86.4 °F /  30.2 °C 61.9 °F /  16.6 °C 29.98 in /  1015.1 hPa WNW 1.5 mph /  2.4 km/h 4.6 mph /  7.4 km/h 44 % 0.00 in /  0 mm
12:41 86.3 °F /  30.2 °C 58.4 °F /  14.7 °C 29.98 in /  1015.1 hPa WSW 3.7 mph /  6 km/h 9.2 mph /  14.8 km/h 39 % 0.00 in /  0 mm
12:46 86.3 °F /  30.2 °C 61.2 °F /  16.2 °C 29.98 in /  1015.1 hPa West 2.0 mph /  3.2 km/h 9.0 mph /  14.5 km/h 43 % 0.00 in /  0 mm
12:51 86.1 °F /  30.1 °C 58.3 °F /  14.6 °C 29.98 in /  1015.1 hPa WSW 3.0 mph /  4.8 km/h 12.0 mph /  19.3 km/h 39 % 0.00 in /  0 mm
12:56 86.1 °F /  30.1 °C 58.2 °F /  14.6 °C 29.97 in /  1014.8 hPa WSW 3.0 mph /  4.8 km/h 9.0 mph /  14.5 km/h 39 % 0.00 in /  0 mm
13:01 86.1 °F /  30.1 °C 56.8 °F /  13.8 °C 29.98 in /  1015.1 hPa West 1.5 mph /  2.4 km/h 5.8 mph /  9.3 km/h 37 % 0.00 in /  0 mm
13:06 86.1 °F /  30.1 °C 61.6 °F /  16.4 °C 29.97 in /  1014.8 hPa SSW 4.4 mph /  7.1 km/h 5.8 mph /  9.3 km/h 44 % 0.00 in /  0 mm
13:11 86.2 °F /  30.1 °C 59.0 °F /  15 °C 29.98 in /  1015.1 hPa West 3.4 mph /  5.5 km/h 9.2 mph /  14.8 km/h 40 % 0.00 in /  0 mm
13:16 86.2 °F /  30.1 °C 57.6 °F /  14.2 °C 29.98 in /  1015.1 hPa NW 1.4 mph /  2.3 km/h 5.0 mph /  8 km/h 38 % 0.00 in /  0 mm
13:22 86.3 °F /  30.2 °C 62.5 °F /  16.9 °C 29.97 in /  1014.8 hPa WNW 1.4 mph /  2.3 km/h 3.0 mph /  4.8 km/h 45 % 0.00 in /  0 mm
13:27 86.4 °F /  30.2 °C 61.9 °F /  16.6 °C 29.97 in /  1014.8 hPa NW 1.0 mph /  1.6 km/h 5.8 mph /  9.3 km/h 44 % 0.00 in /  0 mm
13:32 86.6 °F /  30.3 °C 59.4 °F /  15.2 °C 29.97 in /  1014.8 hPa North 3.6 mph /  5.8 km/h 5.0 mph /  8 km/h 40 % 0.00 in /  0 mm
13:37 86.8 °F /  30.4 °C 62.3 °F /  16.8 °C 29.97 in /  1014.8 hPa West 2.2 mph /  3.5 km/h 2.2 mph /  3.5 km/h 44 % 0.00 in /  0 mm
13:42 87.0 °F /  30.6 °C 62.5 °F /  16.9 °C 29.97 in /  1014.8 hPa WNW 0.9 mph /  1.4 km/h 3.5 mph /  5.6 km/h 44 % 0.00 in /  0 mm
13:47 87.1 °F /  30.6 °C 59.8 °F /  15.4 °C 29.97 in /  1014.8 hPa North 2.1 mph /  3.4 km/h 3.5 mph /  5.6 km/h 40 % 0.00 in /  0 mm
13:52 87.2 °F /  30.7 °C 61.3 °F /  16.3 °C 29.97 in /  1014.8 hPa NW 0.8 mph /  1.3 km/h 2.3 mph /  3.7 km/h 42 % 0.00 in /  0 mm
13:57 87.2 °F /  30.7 °C 61.3 °F /  16.3 °C 29.97 in /  1014.8 hPa West 2.0 mph /  3.2 km/h 4.0 mph /  6.4 km/h 42 % 0.00 in /  0 mm
14:02 87.4 °F /  30.8 °C 59.4 °F /  15.2 °C 29.97 in /  1014.8 hPa West 1.3 mph /  2.1 km/h 4.6 mph /  7.4 km/h 39 % 0.00 in /  0 mm
14:07 87.4 °F /  30.8 °C 58.7 °F /  14.8 °C 29.97 in /  1014.8 hPa WSW 2.3 mph /  3.7 km/h 3.5 mph /  5.6 km/h 38 % 0.00 in /  0 mm
14:12 87.5 °F /  30.8 °C 62.2 °F /  16.8 °C 29.97 in /  1014.8 hPa SW 2.5 mph /  4 km/h 5.8 mph /  9.3 km/h 43 % 0.00 in /  0 mm
14:17 87.7 °F /  30.9 °C 61.1 °F /  16.2 °C 29.97 in /  1014.8 hPa WSW 2.7 mph /  4.3 km/h 5.8 mph /  9.3 km/h 41 % 0.00 in /  0 mm
14:22 87.7 °F /  30.9 °C 58.2 °F /  14.6 °C 29.97 in /  1014.8 hPa WSW 1.7 mph /  2.7 km/h 3.5 mph /  5.6 km/h 37 % 0.00 in /  0 mm
14:27 87.7 °F /  30.9 °C 58.9 °F /  14.9 °C 29.97 in /  1014.8 hPa WSW 4.9 mph /  7.9 km/h 8.0 mph /  12.9 km/h 38 % 0.00 in /  0 mm
14:32 87.7 °F /  30.9 °C 58.9 °F /  14.9 °C 29.97 in /  1014.8 hPa SW 3.4 mph /  5.5 km/h 5.8 mph /  9.3 km/h 38 % 0.00 in /  0 mm
14:37 87.7 °F /  30.9 °C 57.4 °F /  14.1 °C 29.97 in /  1014.8 hPa SW 1.6 mph /  2.6 km/h 4.0 mph /  6.4 km/h 36 % 0.00 in /  0 mm
14:42 87.8 °F /  31 °C 59.8 °F /  15.4 °C 29.97 in /  1014.8 hPa West 2.6 mph /  4.2 km/h 4.0 mph /  6.4 km/h 39 % 0.00 in /  0 mm
14:47 87.7 °F /  30.9 °C 56.7 °F /  13.7 °C 29.97 in /  1014.8 hPa SW 1.7 mph /  2.7 km/h 4.6 mph /  7.4 km/h 35 % 0.00 in /  0 mm
14:52 87.6 °F /  30.9 °C 57.3 °F /  14.1 °C 29.97 in /  1014.8 hPa NW 1.6 mph /  2.6 km/h 3.5 mph /  5.6 km/h 36 % 0.00 in /  0 mm
14:57 87.5 °F /  30.8 °C 57.3 °F /  14.1 °C 29.97 in /  1014.8 hPa West 3.6 mph /  5.8 km/h 6.0 mph /  9.7 km/h 36 % 0.00 in /  0 mm
15:02 87.5 °F /  30.8 °C 57.3 °F /  14.1 °C 29.97 in /  1014.8 hPa WSW 1.4 mph /  2.3 km/h 5.8 mph /  9.3 km/h 36 % 0.00 in /  0 mm
15:07 87.4 °F /  30.8 °C 60.8 °F /  16 °C 29.97 in /  1014.8 hPa WNW 1.8 mph /  2.9 km/h 6.0 mph /  9.7 km/h 41 % 0.00 in /  0 mm
15:12 87.5 °F /  30.8 °C 60.2 °F /  15.7 °C 29.97 in /  1014.8 hPa WNW 3.1 mph /  5 km/h 5.8 mph /  9.3 km/h 40 % 0.00 in /  0 mm
15:17 87.6 °F /  30.9 °C 58.9 °F /  14.9 °C 29.97 in /  1014.8 hPa NW 3.3 mph /  5.3 km/h 5.8 mph /  9.3 km/h 38 % 0.00 in /  0 mm
15:22 87.6 °F /  30.9 °C 58.1 °F /  14.5 °C 29.97 in /  1014.8 hPa WNW 0.8 mph /  1.3 km/h 3.5 mph /  5.6 km/h 37 % 0.00 in /  0 mm
15:27 87.7 °F /  30.9 °C 55.9 °F /  13.3 °C 29.97 in /  1014.8 hPa WSW 1.6 mph /  2.6 km/h 5.8 mph /  9.3 km/h 34 % 0.00 in /  0 mm
15:32 87.5 °F /  30.8 °C 60.2 °F /  15.7 °C 29.96 in /  1014.4 hPa WNW 1.3 mph /  2.1 km/h 4.0 mph /  6.4 km/h 40 % 0.00 in /  0 mm
15:37 87.3 °F /  30.7 °C 57.8 °F /  14.3 °C 29.97 in /  1014.8 hPa WNW 3.4 mph /  5.5 km/h 8.1 mph /  13 km/h 37 % 0.00 in /  0 mm
15:43 87.3 °F /  30.7 °C 58.6 °F /  14.8 °C 29.97 in /  1014.8 hPa NNE 1.0 mph /  1.6 km/h 6.9 mph /  11.1 km/h 38 % 0.00 in /  0 mm
15:48 87.3 °F /  30.7 °C 57.1 °F /  13.9 °C 29.97 in /  1014.8 hPa West 4.9 mph /  7.9 km/h 8.1 mph /  13 km/h 36 % 0.00 in /  0 mm
15:53 87.4 °F /  30.8 °C 57.9 °F /  14.4 °C 29.96 in /  1014.4 hPa WNW 3.3 mph /  5.3 km/h 8.1 mph /  13 km/h 37 % 0.00 in /  0 mm
15:58 87.4 °F /  30.8 °C 61.5 °F /  16.4 °C 29.97 in /  1014.8 hPa NNE 0.6 mph /  1 km/h 2.0 mph /  3.2 km/h 42 % 0.00 in /  0 mm
16:03 87.3 °F /  30.7 °C 58.6 °F /  14.8 °C 29.97 in /  1014.8 hPa West 4.4 mph /  7.1 km/h 9.2 mph /  14.8 km/h 38 % 0.00 in /  0 mm
16:08 87.5 °F /  30.8 °C 60.2 °F /  15.7 °C 29.96 in /  1014.4 hPa West 3.6 mph /  5.8 km/h 8.1 mph /  13 km/h 40 % 0.00 in /  0 mm
16:13 87.6 °F /  30.9 °C 58.9 °F /  14.9 °C 29.97 in /  1014.8 hPa WNW 3.7 mph /  6 km/h 8.1 mph /  13 km/h 38 % 0.00 in /  0 mm
16:18 87.6 °F /  30.9 °C 58.1 °F /  14.5 °C 29.96 in /  1014.4 hPa West 3.7 mph /  6 km/h 5.8 mph /  9.3 km/h 37 % 0.00 in /  0 mm
16:19 87.7 °F /  30.9 °C 58.9 °F /  14.9 °C 29.96 in /  1014.4 hPa West 1.0 mph /  1.6 km/h 3.5 mph /  5.6 km/h 38 % 0.00 in /  0 mm
16:24 87.4 °F /  30.8 °C 59.4 °F /  15.2 °C 29.96 in /  1014.4 hPa WNW 1.7 mph /  2.7 km/h 3.5 mph /  5.6 km/h 39 % 0.00 in /  0 mm
16:29 87.4 °F /  30.8 °C 57.9 °F /  14.4 °C 29.96 in /  1014.4 hPa North 2.5 mph /  4 km/h 5.0 mph /  8 km/h 37 % 0.00 in /  0 mm
16:34 87.5 °F /  30.8 °C 61.6 °F /  16.4 °C 29.96 in /  1014.4 hPa Calm   3.5 mph /  5.6 km/h 42 % 0.00 in /  0 mm
16:39 87.4 °F /  30.8 °C 60.1 °F /  15.6 °C 29.96 in /  1014.4 hPa North 0.3 mph /  0.5 km/h 3.5 mph /  5.6 km/h 40 % 0.00 in /  0 mm
16:44 87.5 °F /  30.8 °C 59.5 °F /  15.3 °C 29.96 in /  1014.4 hPa WNW 2.3 mph /  3.7 km/h 4.6 mph /  7.4 km/h 39 % 0.00 in /  0 mm
16:49 87.6 °F /  30.9 °C 60.3 °F /  15.7 °C 29.96 in /  1014.4 hPa NW 0.9 mph /  1.4 km/h 2.3 mph /  3.7 km/h 40 % 0.00 in /  0 mm
16:54 87.4 °F /  30.8 °C 60.1 °F /  15.6 °C 29.96 in /  1014.4 hPa NNW 2.3 mph /  3.7 km/h 3.5 mph /  5.6 km/h 40 % 0.00 in /  0 mm
17:00 87.2 °F /  30.7 °C 59.2 °F /  15.1 °C 29.96 in /  1014.4 hPa North 1.4 mph /  2.3 km/h 4.0 mph /  6.4 km/h 39 % 0.00 in /  0 mm
17:05 86.8 °F /  30.4 °C 58.9 °F /  14.9 °C 29.95 in /  1014.1 hPa WNW 4.2 mph /  6.8 km/h 6.9 mph /  11.1 km/h 39 % 0.00 in /  0 mm
17:10 86.5 °F /  30.3 °C 58.6 °F /  14.8 °C 29.95 in /  1014.1 hPa NNW 0.8 mph /  1.3 km/h 3.5 mph /  5.6 km/h 39 % 0.00 in /  0 mm
17:15 86.4 °F /  30.2 °C 60.6 °F /  15.9 °C 29.95 in /  1014.1 hPa NW 0.4 mph /  0.6 km/h 3.5 mph /  5.6 km/h 42 % 0.00 in /  0 mm
17:20 86.3 °F /  30.2 °C 58.4 °F /  14.7 °C 29.95 in /  1014.1 hPa WNW 3.8 mph /  6.1 km/h 4.6 mph /  7.4 km/h 39 % 0.00 in /  0 mm
17:25 86.3 °F /  30.2 °C 58.4 °F /  14.7 °C 29.95 in /  1014.1 hPa NNW 1.4 mph /  2.3 km/h 4.6 mph /  7.4 km/h 39 % 0.00 in /  0 mm
17:30 85.8 °F /  29.9 °C 57.3 °F /  14.1 °C 29.95 in /  1014.1 hPa NW 2.5 mph /  4 km/h 6.9 mph /  11.1 km/h 38 % 0.00 in /  0 mm
17:35 85.3 °F /  29.6 °C 58.2 °F /  14.6 °C 29.95 in /  1014.1 hPa NW 1.5 mph /  2.4 km/h 5.8 mph /  9.3 km/h 40 % 0.00 in /  0 mm
17:40 84.8 °F /  29.3 °C 57.8 °F /  14.3 °C 29.95 in /  1014.1 hPa WNW 0.4 mph /  0.6 km/h 3.5 mph /  5.6 km/h 40 % 0.00 in /  0 mm
17:45 84.5 °F /  29.2 °C 58.2 °F /  14.6 °C 29.95 in /  1014.1 hPa West 0.1 mph /  0.2 km/h 2.3 mph /  3.7 km/h 41 % 0.00 in /  0 mm
17:50 84.2 °F /  29 °C 58.6 °F /  14.8 °C 29.94 in /  1013.8 hPa WNW 0.3 mph /  0.5 km/h 3.0 mph /  4.8 km/h 42 % 0.00 in /  0 mm
17:55 83.9 °F /  28.8 °C 58.3 °F /  14.6 °C 29.95 in /  1014.1 hPa Calm   1.2 mph /  1.9 km/h 42 % 0.00 in /  0 mm
18:00 83.6 °F /  28.7 °C 58.1 °F /  14.5 °C 29.95 in /  1014.1 hPa WNW 2.0 mph /  3.2 km/h 3.5 mph /  5.6 km/h 42 % 0.00 in /  0 mm
18:05 83.2 °F /  28.4 °C 56.4 °F /  13.6 °C 29.95 in /  1014.1 hPa West 1.6 mph /  2.6 km/h 3.5 mph /  5.6 km/h 40 % 0.00 in /  0 mm
18:10 82.9 °F /  28.3 °C 56.8 °F /  13.8 °C 29.95 in /  1014.1 hPa NNW 1.5 mph /  2.4 km/h 5.8 mph /  9.3 km/h 41 % 0.00 in /  0 mm
18:15 82.7 °F /  28.2 °C 57.3 °F /  14.1 °C 29.94 in /  1013.8 hPa NNE 0.1 mph /  0.2 km/h 1.2 mph /  1.9 km/h 42 % 0.00 in /  0 mm
18:20 82.4 °F /  28 °C 57.0 °F /  13.9 °C 29.95 in /  1014.1 hPa WNW 0.2 mph /  0.3 km/h 1.2 mph /  1.9 km/h 42 % 0.00 in /  0 mm
18:25 82.3 °F /  27.9 °C 58.2 °F /  14.6 °C 29.95 in /  1014.1 hPa WNW 0.1 mph /  0.2 km/h 1.2 mph /  1.9 km/h 44 % 0.00 in /  0 mm
18:30 82.2 °F /  27.9 °C 57.5 °F /  14.2 °C 29.94 in /  1013.8 hPa Calm     43 % 0.00 in /  0 mm
18:35 82.1 °F /  27.8 °C 57.4 °F /  14.1 °C 29.95 in /  1014.1 hPa SW 2.0 mph /  3.2 km/h 3.0 mph /  4.8 km/h 43 % 0.00 in /  0 mm
18:40 82.0 °F /  27.8 °C 57.3 °F /  14.1 °C 29.95 in /  1014.1 hPa Calm   1.2 mph /  1.9 km/h 43 % 0.00 in /  0 mm
18:45 81.9 °F /  27.7 °C 57.2 °F /  14 °C 29.96 in /  1014.4 hPa SW 0.6 mph /  1 km/h 3.5 mph /  5.6 km/h 43 % 0.00 in /  0 mm
18:50 81.7 °F /  27.6 °C 57.7 °F /  14.3 °C 29.95 in /  1014.1 hPa SW 0.2 mph /  0.3 km/h 1.2 mph /  1.9 km/h 44 % 0.00 in /  0 mm
18:55 81.5 °F /  27.5 °C 57.5 °F /  14.2 °C 29.95 in /  1014.1 hPa Calm   1.2 mph /  1.9 km/h 44 % 0.00 in /  0 mm
19:00 81.3 °F /  27.4 °C 56.7 °F /  13.7 °C 29.96 in /  1014.4 hPa SW 0.4 mph /  0.6 km/h 2.0 mph /  3.2 km/h 43 % 0.00 in /  0 mm
19:05 81.1 °F /  27.3 °C 57.1 °F /  13.9 °C 29.95 in /  1014.1 hPa SW 0.5 mph /  0.8 km/h 1.2 mph /  1.9 km/h 44 % 0.00 in /  0 mm
19:10 81.0 °F /  27.2 °C 58.9 °F /  14.9 °C 29.96 in /  1014.4 hPa Calm   1.0 mph /  1.6 km/h 47 % 0.00 in /  0 mm
19:15 80.8 °F /  27.1 °C 59.3 °F /  15.2 °C 29.96 in /  1014.4 hPa SW 1.9 mph /  3.1 km/h 3.5 mph /  5.6 km/h 48 % 0.00 in /  0 mm
19:21 80.7 °F /  27.1 °C 59.2 °F /  15.1 °C 29.96 in /  1014.4 hPa WSW 0.7 mph /  1.1 km/h 3.5 mph /  5.6 km/h 48 % 0.00 in /  0 mm
19:26 80.6 °F /  27 °C 60.3 °F /  15.7 °C 29.96 in /  1014.4 hPa SW 2.0 mph /  3.2 km/h 5.0 mph /  8 km/h 50 % 0.00 in /  0 mm
19:31 80.5 °F /  26.9 °C 60.7 °F /  15.9 °C 29.96 in /  1014.4 hPa SSW 1.0 mph /  1.6 km/h 3.0 mph /  4.8 km/h 51 % 0.00 in /  0 mm
19:36 80.2 °F /  26.8 °C 61.5 °F /  16.4 °C 29.96 in /  1014.4 hPa WSW 1.0 mph /  1.6 km/h 3.0 mph /  4.8 km/h 53 % 0.00 in /  0 mm
19:41 79.9 °F /  26.6 °C 61.8 °F /  16.6 °C 29.97 in /  1014.8 hPa Calm     54 % 0.00 in /  0 mm
19:46 79.6 °F /  26.4 °C 61.5 °F /  16.4 °C 29.97 in /  1014.8 hPa West 0.7 mph /  1.1 km/h 2.3 mph /  3.7 km/h 54 % 0.00 in /  0 mm
19:51 79.2 °F /  26.2 °C 61.1 °F /  16.2 °C 29.97 in /  1014.8 hPa SSW 1.5 mph /  2.4 km/h 3.5 mph /  5.6 km/h 54 % 0.00 in /  0 mm
19:56 78.9 °F /  26.1 °C 61.9 °F /  16.6 °C 29.97 in /  1014.8 hPa SSW 0.2 mph /  0.3 km/h 1.2 mph /  1.9 km/h 56 % 0.00 in /  0 mm
20:01 78.4 °F /  25.8 °C 61.4 °F /  16.3 °C 29.97 in /  1014.8 hPa SSW 1.0 mph /  1.6 km/h 3.5 mph /  5.6 km/h 56 % 0.00 in /  0 mm
20:06 77.9 °F /  25.5 °C 61.4 °F /  16.3 °C 29.97 in /  1014.8 hPa WSW 0.1 mph /  0.2 km/h 1.2 mph /  1.9 km/h 57 % 0.00 in /  0 mm
20:11 77.5 °F /  25.3 °C 61.6 °F /  16.4 °C 29.97 in /  1014.8 hPa SW 0.5 mph /  0.8 km/h 2.3 mph /  3.7 km/h 58 % 0.00 in /  0 mm
20:16 77.1 °F /  25.1 °C 61.2 °F /  16.2 °C 29.97 in /  1014.8 hPa SW 0.4 mph /  0.6 km/h 2.3 mph /  3.7 km/h 58 % 0.00 in /  0 mm
20:21 76.7 °F /  24.8 °C 60.8 °F /  16 °C 29.97 in /  1014.8 hPa SW 0.2 mph /  0.3 km/h 1.2 mph /  1.9 km/h 58 % 0.00 in /  0 mm
20:26 76.3 °F /  24.6 °C 60.9 °F /  16.1 °C 29.97 in /  1014.8 hPa SW 0.5 mph /  0.8 km/h 1.2 mph /  1.9 km/h 59 % 0.00 in /  0 mm
20:32 75.9 °F /  24.4 °C 61.0 °F /  16.1 °C 29.97 in /  1014.8 hPa SW 0.4 mph /  0.6 km/h 3.5 mph /  5.6 km/h 60 % 0.00 in /  0 mm
20:37 75.6 °F /  24.2 °C 60.7 °F /  15.9 °C 29.97 in /  1014.8 hPa SSW 0.6 mph /  1 km/h 3.5 mph /  5.6 km/h 60 % 0.00 in /  0 mm
20:42 75.2 °F /  24 °C 60.8 °F /  16 °C 29.97 in /  1014.8 hPa SSW 0.5 mph /  0.8 km/h 2.3 mph /  3.7 km/h 61 % 0.00 in /  0 mm
20:47 74.9 °F /  23.8 °C 61.0 °F /  16.1 °C 29.98 in /  1015.1 hPa SSW 0.5 mph /  0.8 km/h 1.2 mph /  1.9 km/h 62 % 0.00 in /  0 mm
20:52 74.6 °F /  23.7 °C 60.7 °F /  15.9 °C 29.98 in /  1015.1 hPa South 0.4 mph /  0.6 km/h 2.3 mph /  3.7 km/h 62 % 0.00 in /  0 mm
20:57 74.4 °F /  23.6 °C 61.0 °F /  16.1 °C 29.98 in /  1015.1 hPa SW 0.1 mph /  0.2 km/h 1.2 mph /  1.9 km/h 63 % 0.00 in /  0 mm
21:02 74.1 °F /  23.4 °C 61.1 °F /  16.2 °C 29.98 in /  1015.1 hPa SW 0.6 mph /  1 km/h 2.3 mph /  3.7 km/h 64 % 0.00 in /  0 mm
21:07 73.9 °F /  23.3 °C 61.4 °F /  16.3 °C 29.98 in /  1015.1 hPa South 0.8 mph /  1.3 km/h 3.5 mph /  5.6 km/h 65 % 0.00 in /  0 mm
21:12 73.6 °F /  23.1 °C 61.5 °F /  16.4 °C 29.98 in /  1015.1 hPa South 0.5 mph /  0.8 km/h 1.2 mph /  1.9 km/h 66 % 0.00 in /  0 mm
21:17 73.4 °F /  23 °C 61.8 °F /  16.6 °C 29.98 in /  1015.1 hPa Calm   1.2 mph /  1.9 km/h 67 % 0.00 in /  0 mm
21:22 73.2 °F /  22.9 °C 62.0 °F /  16.7 °C 29.99 in /  1015.5 hPa SSW 0.2 mph /  0.3 km/h 1.2 mph /  1.9 km/h 68 % 0.00 in /  0 mm
21:27 73.0 °F /  22.8 °C 61.8 °F /  16.6 °C 29.99 in /  1015.5 hPa SSW 0.2 mph /  0.3 km/h 1.2 mph /  1.9 km/h 68 % 0.00 in /  0 mm
21:32 72.9 °F /  22.7 °C 61.7 °F /  16.5 °C 29.99 in /  1015.5 hPa SSW 0.3 mph /  0.5 km/h 1.2 mph /  1.9 km/h 68 % 0.00 in /  0 mm
21:37 72.7 °F /  22.6 °C 61.9 °F /  16.6 °C 29.99 in /  1015.5 hPa Calm   1.0 mph /  1.6 km/h 69 % 0.00 in /  0 mm
21:42 72.5 °F /  22.5 °C 62.2 °F /  16.8 °C 29.99 in /  1015.5 hPa Calm   1.2 mph /  1.9 km/h 70 % 0.00 in /  0 mm
21:47 72.3 °F /  22.4 °C 62.0 °F /  16.7 °C 29.99 in /  1015.5 hPa Calm     70 % 0.00 in /  0 mm
21:52 72.1 °F /  22.3 °C 62.2 °F /  16.8 °C 30.00 in /  1015.8 hPa SW 0.1 mph /  0.2 km/h 2.3 mph /  3.7 km/h 71 % 0.00 in /  0 mm
21:57 71.9 °F /  22.2 °C 62.4 °F /  16.9 °C 29.99 in /  1015.5 hPa SW 0.5 mph /  0.8 km/h 2.3 mph /  3.7 km/h 72 % 0.00 in /  0 mm
22:02 71.7 °F /  22.1 °C 62.2 °F /  16.8 °C 29.99 in /  1015.5 hPa Calm     72 % 0.00 in /  0 mm
22:07 71.5 °F /  21.9 °C 62.4 °F /  16.9 °C 29.99 in /  1015.5 hPa Calm     73 % 0.00 in /  0 mm
22:12 71.3 °F /  21.8 °C 62.2 °F /  16.8 °C 29.99 in /  1015.5 hPa Calm   1.0 mph /  1.6 km/h 73 % 0.00 in /  0 mm
22:18 71.2 °F /  21.8 °C 62.1 °F /  16.7 °C 29.99 in /  1015.5 hPa Calm     73 % 0.00 in /  0 mm
22:23 71.0 °F /  21.7 °C 62.3 °F /  16.8 °C 29.99 in /  1015.5 hPa SW 0.3 mph /  0.5 km/h 2.3 mph /  3.7 km/h 74 % 0.00 in /  0 mm
22:28 70.8 °F /  21.6 °C 62.1 °F /  16.7 °C 29.99 in /  1015.5 hPa Calm   1.0 mph /  1.6 km/h 74 % 0.00 in /  0 mm
22:33 70.7 °F /  21.5 °C 62.4 °F /  16.9 °C 29.99 in /  1015.5 hPa Calm     75 % 0.00 in /  0 mm
22:38 70.6 °F /  21.4 °C 62.3 °F /  16.8 °C 30.00 in /  1015.8 hPa SW 0.2 mph /  0.3 km/h 1.2 mph /  1.9 km/h 75 % 0.00 in /  0 mm
22:43 70.4 °F /  21.3 °C 62.5 °F /  16.9 °C 30.00 in /  1015.8 hPa South 0.9 mph /  1.4 km/h 2.0 mph /  3.2 km/h 76 % 0.00 in /  0 mm
22:48 70.3 °F /  21.3 °C 62.7 °F /  17.1 °C 30.00 in /  1015.8 hPa ESE 0.3 mph /  0.5 km/h 1.2 mph /  1.9 km/h 77 % 0.00 in /  0 mm
22:53 70.3 °F /  21.3 °C 62.7 °F /  17.1 °C 30.00 in /  1015.8 hPa ESE 0.3 mph /  0.5 km/h 2.3 mph /  3.7 km/h 77 % 0.00 in /  0 mm
22:58 70.2 °F /  21.2 °C 63.0 °F /  17.2 °C 30.00 in /  1015.8 hPa Calm   1.0 mph /  1.6 km/h 78 % 0.00 in /  0 mm
23:03 70.2 °F /  21.2 °C 63.0 °F /  17.2 °C 30.00 in /  1015.8 hPa Calm   2.3 mph /  3.7 km/h 78 % 0.00 in /  0 mm
23:08 70.1 °F /  21.2 °C 63.3 °F /  17.4 °C 30.00 in /  1015.8 hPa ESE 0.2 mph /  0.3 km/h 1.2 mph /  1.9 km/h 79 % 0.00 in /  0 mm
23:13 70.1 °F /  21.2 °C 63.3 °F /  17.4 °C 30.00 in /  1015.8 hPa ESE 0.4 mph /  0.6 km/h 2.3 mph /  3.7 km/h 79 % 0.00 in /  0 mm
23:18 70.0 °F /  21.1 °C 63.5 °F /  17.5 °C 30.00 in /  1015.8 hPa South 0.7 mph /  1.1 km/h 2.3 mph /  3.7 km/h 80 % 0.00 in /  0 mm
23:23 70.0 °F /  21.1 °C 63.9 °F /  17.7 °C 30.00 in /  1015.8 hPa South 0.2 mph /  0.3 km/h 1.2 mph /  1.9 km/h 81 % 0.00 in /  0 mm
23:28 70.0 °F /  21.1 °C 63.9 °F /  17.7 °C 30.00 in /  1015.8 hPa SSE 0.3 mph /  0.5 km/h 1.2 mph /  1.9 km/h 81 % 0.00 in /  0 mm
23:33 70.0 °F /  21.1 °C 64.2 °F /  17.9 °C 30.00 in /  1015.8 hPa Calm   1.2 mph /  1.9 km/h 82 % 0.00 in /  0 mm
23:38 70.0 °F /  21.1 °C 64.6 °F /  18.1 °C 30.01 in /  1016.1 hPa Calm     83 % 0.00 in /  0 mm
23:43 70.0 °F /  21.1 °C 64.2 °F /  17.9 °C 30.01 in /  1016.1 hPa SSE 0.3 mph /  0.5 km/h 1.2 mph /  1.9 km/h 82 % 0.00 in /  0 mm
23:44 70.0 °F /  21.1 °C 64.2 °F /  17.9 °C 30.01 in /  1016.1 hPa SSE 0.1 mph /  0.2 km/h 1.2 mph /  1.9 km/h 82 % 0.00 in /  0 mm
23:49 70.0 °F /  21.1 °C 64.6 °F /  18.1 °C 30.01 in /  1016.1 hPa SSE 0.1 mph /  0.2 km/h 1.2 mph /  1.9 km/h 83 % 0.00 in /  0 mm
23:54 69.9 °F /  21.1 °C 64.5 °F /  18.1 °C 30.01 in /  1016.1 hPa SSE 0.2 mph /  0.3 km/h 1.2 mph /  1.9 km/h 83 % 0.00 in /  0 mm
23:59 69.9 °F /  21.1 °C 64.5 °F /  18.1 °C 30.01 in /  1016.1 hPa Calm   3.5 mph /  5.6 km/h 83 % 0.00 in /  0 mm
Crab Meadow Weather
Compliments of Weather Underground - 3 mb

Script developed by  Jim McMurry - jmcmurry@mwt.net Adapted for the template by  Wim van der Kuil - Leuven-Template.eu

Recycling: Out of every $10 spent buying things, $1 (10%) goes for packaging that is thrown away. Packaging represents about 65% of household trash.